Terminal Aerodrome Forecast
Issued by NWS

Home | Current Version | Previous Version | Text Only | Print | Product List | Glossary On
Versions: 1 2 3 4 5 6 7 8 9 10 11 12 13 14 15 16 17 18 19 20 21 22 23
322
FTUS46 KSGX 231810 CCA
TAFCRQ
TAF COR
KCRQ 231810Z 2318/2418 VRB03KT P6SM SCT010
     FM231900 25008KT P6SM SCT010
     FM240000 VRB04KT P6SM SCT008
     FM240700 VRB03KT P6SM OVC007
     FM241200 VRB03KT 3SM BR OVC004
     FM241600 VRB04KT P6SM SCT008=

USA.gov is the U.S. government's official web portal to all federal, state and local government web resources and services.